sensor_id;sensor_type;location;lat;lon;timestamp;temperature;humidity
4312;DHT22;2169;49.086;9.284;2023-03-22T00:02:15;11.20;61.70
4312;DHT22;2169;49.086;9.284;2023-03-22T00:04:41;11.20;61.80
4312;DHT22;2169;49.086;9.284;2023-03-22T00:07:08;11.10;61.70
4312;DHT22;2169;49.086;9.284;2023-03-22T00:09:35;11.10;61.80
4312;DHT22;2169;49.086;9.284;2023-03-22T00:12:02;11.10;61.90
4312;DHT22;2169;49.086;9.284;2023-03-22T00:14:29;11.20;62.00
4312;DHT22;2169;49.086;9.284;2023-03-22T00:16:55;11.20;62.10
4312;DHT22;2169;49.086;9.284;2023-03-22T00:19:23;11.10;62.00
4312;DHT22;2169;49.086;9.284;2023-03-22T00:21:51;11.10;62.10
4312;DHT22;2169;49.086;9.284;2023-03-22T00:24:17;11.10;62.10
4312;DHT22;2169;49.086;9.284;2023-03-22T00:26:45;11.10;62.20
4312;DHT22;2169;49.086;9.284;2023-03-22T00:29:12;11.10;62.30
4312;DHT22;2169;49.086;9.284;2023-03-22T00:31:39;11.10;62.40
4312;DHT22;2169;49.086;9.284;2023-03-22T00:34:06;11.00;62.40
4312;DHT22;2169;49.086;9.284;2023-03-22T00:36:34;11.00;62.40
4312;DHT22;2169;49.086;9.284;2023-03-22T00:39:02;11.00;62.50
4312;DHT22;2169;49.086;9.284;2023-03-22T00:41:29;11.00;62.50
4312;DHT22;2169;49.086;9.284;2023-03-22T00:43:55;11.00;62.50
4312;DHT22;2169;49.086;9.284;2023-03-22T00:46:23;10.90;62.50
4312;DHT22;2169;49.086;9.284;2023-03-22T00:48:50;10.90;62.40
4312;DHT22;2169;49.086;9.284;2023-03-22T00:51:16;10.90;62.40
4312;DHT22;2169;49.086;9.284;2023-03-22T00:53:45;10.80;62.40
4312;DHT22;2169;49.086;9.284;2023-03-22T00:56:14;10.80;62.40
4312;DHT22;2169;49.086;9.284;2023-03-22T00:58:40;10.70;62.30
4312;DHT22;2169;49.086;9.284;2023-03-22T01:01:08;10.70;62.40
4312;DHT22;2169;49.086;9.284;2023-03-22T01:03:37;10.70;62.40
4312;DHT22;2169;49.086;9.284;2023-03-22T01:06:05;10.60;62.30
4312;DHT22;2169;49.086;9.284;2023-03-22T01:08:32;10.60;62.30
4312;DHT22;2169;49.086;9.284;2023-03-22T01:11:01;10.50;62.10
4312;DHT22;2169;49.086;9.284;2023-03-22T01:13:27;10.50;62.10
4312;DHT22;2169;49.086;9.284;2023-03-22T01:15:55;10.50;62.10
4312;DHT22;2169;49.086;9.284;2023-03-22T01:18:21;10.40;61.90
4312;DHT22;2169;49.086;9.284;2023-03-22T01:20:48;10.40;61.90
4312;DHT22;2169;49.086;9.284;2023-03-22T01:23:16;10.30;61.90
4312;DHT22;2169;49.086;9.284;2023-03-22T01:25:43;10.30;61.90
4312;DHT22;2169;49.086;9.284;2023-03-22T01:28:12;10.20;61.80
4312;DHT22;2169;49.086;9.284;2023-03-22T01:30:39;10.20;61.80
4312;DHT22;2169;49.086;9.284;2023-03-22T01:33:06;10.10;61.80
4312;DHT22;2169;49.086;9.284;2023-03-22T01:35:33;10.10;61.90
4312;DHT22;2169;49.086;9.284;2023-03-22T01:38:00;10.10;62.00
4312;DHT22;2169;49.086;9.284;2023-03-22T01:40:27;10.10;62.10
4312;DHT22;2169;49.086;9.284;2023-03-22T01:42:54;10.10;62.10
4312;DHT22;2169;49.086;9.284;2023-03-22T01:45:39;10.00;62.10
4312;DHT22;2169;49.086;9.284;2023-03-22T01:48:13;10.10;62.30
4312;DHT22;2169;49.086;9.284;2023-03-22T01:50:44;10.10;62.40
4312;DHT22;2169;49.086;9.284;2023-03-22T01:53:15;10.00;62.30
4312;DHT22;2169;49.086;9.284;2023-03-22T01:55:48;10.00;62.30
4312;DHT22;2169;49.086;9.284;2023-03-22T01:58:15;10.00;62.30
4312;DHT22;2169;49.086;9.284;2023-03-22T02:00:44;10.00;62.40
4312;DHT22;2169;49.086;9.284;2023-03-22T02:03:13;10.00;62.50
4312;DHT22;2169;49.086;9.284;2023-03-22T02:05:43;9.90;63.50
4312;DHT22;2169;49.086;9.284;2023-03-22T02:08:10;9.90;63.50
4312;DHT22;2169;49.086;9.284;2023-03-22T02:10:40;9.90;63.60
4312;DHT22;2169;49.086;9.284;2023-03-22T02:13:28;9.80;63.60
4312;DHT22;2169;49.086;9.284;2023-03-22T02:16:09;9.80;63.60
4312;DHT22;2169;49.086;9.284;2023-03-22T02:18:58;9.80;63.70
4312;DHT22;2169;49.086;9.284;2023-03-22T02:21:55;9.70;63.60
4312;DHT22;2169;49.086;9.284;2023-03-22T02:24:53;9.70;63.70
4312;DHT22;2169;49.086;9.284;2023-03-22T02:27:37;9.70;63.70
4312;DHT22;2169;49.086;9.284;2023-03-22T02:30:27;9.70;63.70
4312;DHT22;2169;49.086;9.284;2023-03-22T02:33:18;9.60;63.70
4312;DHT22;2169;49.086;9.284;2023-03-22T02:36:47;9.60;63.60
4312;DHT22;2169;49.086;9.284;2023-03-22T02:39:31;9.50;63.50
4312;DHT22;2169;49.086;9.284;2023-03-22T02:42:11;9.50;63.60
4312;DHT22;2169;49.086;9.284;2023-03-22T02:44:51;9.40;63.60
4312;DHT22;2169;49.086;9.284;2023-03-22T02:47:22;9.40;63.60
4312;DHT22;2169;49.086;9.284;2023-03-22T02:49:55;9.40;63.70
4312;DHT22;2169;49.086;9.284;2023-03-22T02:52:29;9.40;63.70
4312;DHT22;2169;49.086;9.284;2023-03-22T02:55:04;9.30;63.70
4312;DHT22;2169;49.086;9.284;2023-03-22T02:57:34;9.30;63.70
4312;DHT22;2169;49.086;9.284;2023-03-22T03:00:05;9.20;63.70
4312;DHT22;2169;49.086;9.284;2023-03-22T03:02:35;9.20;63.70
4312;DHT22;2169;49.086;9.284;2023-03-22T03:05:04;9.20;63.70
4312;DHT22;2169;49.086;9.284;2023-03-22T03:07:33;9.10;63.70
4312;DHT22;2169;49.086;9.284;2023-03-22T03:10:02;9.10;63.70
4312;DHT22;2169;49.086;9.284;2023-03-22T03:12:29;9.10;63.70
4312;DHT22;2169;49.086;9.284;2023-03-22T03:14:56;9.00;63.70
4312;DHT22;2169;49.086;9.284;2023-03-22T03:17:33;9.00;63.70
4312;DHT22;2169;49.086;9.284;2023-03-22T03:20:16;9.00;63.70
4312;DHT22;2169;49.086;9.284;2023-03-22T03:22:55;9.00;63.80
4312;DHT22;2169;49.086;9.284;2023-03-22T03:25:31;8.90;63.70
4312;DHT22;2169;49.086;9.284;2023-03-22T03:28:06;8.90;63.70
4312;DHT22;2169;49.086;9.284;2023-03-22T03:30:38;8.90;63.80
4312;DHT22;2169;49.086;9.284;2023-03-22T03:33:10;8.80;63.70
4312;DHT22;2169;49.086;9.284;2023-03-22T03:35:43;8.80;63.70
4312;DHT22;2169;49.086;9.284;2023-03-22T03:38:12;8.80;63.80
4312;DHT22;2169;49.086;9.284;2023-03-22T03:40:44;8.70;63.70
4312;DHT22;2169;49.086;9.284;2023-03-22T03:43:13;8.70;63.80
4312;DHT22;2169;49.086;9.284;2023-03-22T03:45:40;8.60;63.70
4312;DHT22;2169;49.086;9.284;2023-03-22T03:48:09;8.60;63.80
4312;DHT22;2169;49.086;9.284;2023-03-22T03:50:38;8.60;63.90
4312;DHT22;2169;49.086;9.284;2023-03-22T03:53:05;8.50;63.80
4312;DHT22;2169;49.086;9.284;2023-03-22T03:55:32;8.50;63.90
4312;DHT22;2169;49.086;9.284;2023-03-22T03:58:00;8.50;63.90
4312;DHT22;2169;49.086;9.284;2023-03-22T04:00:27;8.50;64.00
4312;DHT22;2169;49.086;9.284;2023-03-22T04:02:54;8.40;63.90
4312;DHT22;2169;49.086;9.284;2023-03-22T04:05:21;8.40;64.00
4312;DHT22;2169;49.086;9.284;2023-03-22T04:07:47;8.40;64.00
4312;DHT22;2169;49.086;9.284;2023-03-22T04:10:14;8.30;63.90
4312;DHT22;2169;49.086;9.284;2023-03-22T04:12:41;8.30;64.00
4312;DHT22;2169;49.086;9.284;2023-03-22T04:15:10;8.30;64.10
4312;DHT22;2169;49.086;9.284;2023-03-22T04:17:37;8.30;64.20
4312;DHT22;2169;49.086;9.284;2023-03-22T04:20:05;8.30;64.10
4312;DHT22;2169;49.086;9.284;2023-03-22T04:22:35;8.30;64.20
4312;DHT22;2169;49.086;9.284;2023-03-22T04:25:03;8.20;64.20
4312;DHT22;2169;49.086;9.284;2023-03-22T04:27:30;8.20;64.30
4312;DHT22;2169;49.086;9.284;2023-03-22T04:29:57;8.20;64.40
4312;DHT22;2169;49.086;9.284;2023-03-22T04:32:26;8.10;64.50
4312;DHT22;2169;49.086;9.284;2023-03-22T04:34:53;8.10;64.50
4312;DHT22;2169;49.086;9.284;2023-03-22T04:37:20;8.10;64.60
4312;DHT22;2169;49.086;9.284;2023-03-22T04:39:49;8.10;64.60
4312;DHT22;2169;49.086;9.284;2023-03-22T04:42:15;8.10;64.70
4312;DHT22;2169;49.086;9.284;2023-03-22T04:44:42;8.00;64.70
4312;DHT22;2169;49.086;9.284;2023-03-22T04:47:09;8.00;64.80
4312;DHT22;2169;49.086;9.284;2023-03-22T04:49:37;8.00;64.90
4312;DHT22;2169;49.086;9.284;2023-03-22T04:52:04;8.00;65.00
4312;DHT22;2169;49.086;9.284;2023-03-22T04:54:31;8.00;65.00
4312;DHT22;2169;49.086;9.284;2023-03-22T04:56:57;8.00;65.10
4312;DHT22;2169;49.086;9.284;2023-03-22T04:59:25;7.90;65.00
4312;DHT22;2169;49.086;9.284;2023-03-22T05:01:52;7.90;65.00
4312;DHT22;2169;49.086;9.284;2023-03-22T05:04:19;7.90;65.00
4312;DHT22;2169;49.086;9.284;2023-03-22T05:06:48;7.80;65.00
4312;DHT22;2169;49.086;9.284;2023-03-22T05:09:14;7.80;65.30
4312;DHT22;2169;49.086;9.284;2023-03-22T05:11:41;7.80;65.00
4312;DHT22;2169;49.086;9.284;2023-03-22T05:14:08;7.80;65.00
4312;DHT22;2169;49.086;9.284;2023-03-22T05:16:35;7.80;65.10
4312;DHT22;2169;49.086;9.284;2023-03-22T05:19:05;7.70;65.00
4312;DHT22;2169;49.086;9.284;2023-03-22T05:21:39;7.70;65.00
4312;DHT22;2169;49.086;9.284;2023-03-22T05:24:09;7.70;65.10
4312;DHT22;2169;49.086;9.284;2023-03-22T05:26:36;7.70;65.20
4312;DHT22;2169;49.086;9.284;2023-03-22T05:29:07;7.70;65.20
4312;DHT22;2169;49.086;9.284;2023-03-22T05:31:34;7.60;65.20
4312;DHT22;2169;49.086;9.284;2023-03-22T05:34:01;7.60;65.20
4312;DHT22;2169;49.086;9.284;2023-03-22T05:36:28;7.60;65.20
4312;DHT22;2169;49.086;9.284;2023-03-22T05:38:55;7.60;65.30
4312;DHT22;2169;49.086;9.284;2023-03-22T05:41:23;7.50;65.30
4312;DHT22;2169;49.086;9.284;2023-03-22T05:43:50;7.50;65.30
4312;DHT22;2169;49.086;9.284;2023-03-22T05:46:16;7.50;65.40
4312;DHT22;2169;49.086;9.284;2023-03-22T05:48:43;7.50;66.10
4312;DHT22;2169;49.086;9.284;2023-03-22T05:51:12;7.50;65.50
4312;DHT22;2169;49.086;9.284;2023-03-22T05:53:42;7.50;65.60
4312;DHT22;2169;49.086;9.284;2023-03-22T05:56:09;7.50;65.60
4312;DHT22;2169;49.086;9.284;2023-03-22T05:58:37;7.50;65.70
4312;DHT22;2169;49.086;9.284;2023-03-22T06:01:07;7.50;65.80
4312;DHT22;2169;49.086;9.284;2023-03-22T06:03:35;7.50;65.80
4312;DHT22;2169;49.086;9.284;2023-03-22T06:06:02;7.50;65.90
4312;DHT22;2169;49.086;9.284;2023-03-22T06:08:31;7.50;66.00
4312;DHT22;2169;49.086;9.284;2023-03-22T06:10:58;7.50;66.00
4312;DHT22;2169;49.086;9.284;2023-03-22T06:13:25;7.50;66.10
4312;DHT22;2169;49.086;9.284;2023-03-22T06:15:53;7.50;66.20
4312;DHT22;2169;49.086;9.284;2023-03-22T06:18:20;7.50;66.20
4312;DHT22;2169;49.086;9.284;2023-03-22T06:20:47;7.50;66.30
4312;DHT22;2169;49.086;9.284;2023-03-22T06:23:14;7.50;66.40
4312;DHT22;2169;49.086;9.284;2023-03-22T06:25:40;7.60;66.50
4312;DHT22;2169;49.086;9.284;2023-03-22T06:28:08;7.60;66.60
4312;DHT22;2169;49.086;9.284;2023-03-22T06:30:35;7.60;66.60
4312;DHT22;2169;49.086;9.284;2023-03-22T06:33:03;7.60;66.70
4312;DHT22;2169;49.086;9.284;2023-03-22T06:35:30;7.60;66.80
4312;DHT22;2169;49.086;9.284;2023-03-22T06:37:57;7.60;66.80
4312;DHT22;2169;49.086;9.284;2023-03-22T06:40:24;7.60;66.90
4312;DHT22;2169;49.086;9.284;2023-03-22T06:42:51;7.70;67.00
4312;DHT22;2169;49.086;9.284;2023-03-22T06:45:18;7.70;67.00
4312;DHT22;2169;49.086;9.284;2023-03-22T06:47:45;7.80;67.20
4312;DHT22;2169;49.086;9.284;2023-03-22T06:50:14;7.80;67.20
4312;DHT22;2169;49.086;9.284;2023-03-22T06:52:40;7.90;67.40
4312;DHT22;2169;49.086;9.284;2023-03-22T06:55:08;7.90;67.50
4312;DHT22;2169;49.086;9.284;2023-03-22T06:57:35;8.00;67.80
4312;DHT22;2169;49.086;9.284;2023-03-22T07:00:02;8.10;67.90
4312;DHT22;2169;49.086;9.284;2023-03-22T07:02:29;8.20;68.70
4312;DHT22;2169;49.086;9.284;2023-03-22T07:04:56;8.20;68.10
4312;DHT22;2169;49.086;9.284;2023-03-22T07:07:24;8.30;68.20
4312;DHT22;2169;49.086;9.284;2023-03-22T07:09:51;8.40;68.30
4312;DHT22;2169;49.086;9.284;2023-03-22T07:12:18;8.50;68.40
4312;DHT22;2169;49.086;9.284;2023-03-22T07:14:44;8.60;68.50
4312;DHT22;2169;49.086;9.284;2023-03-22T07:17:11;8.70;68.40
4312;DHT22;2169;49.086;9.284;2023-03-22T07:19:38;8.70;68.50
4312;DHT22;2169;49.086;9.284;2023-03-22T07:22:07;8.80;68.50
4312;DHT22;2169;49.086;9.284;2023-03-22T07:24:35;8.80;68.50
4312;DHT22;2169;49.086;9.284;2023-03-22T07:27:01;8.90;68.50
4312;DHT22;2169;49.086;9.284;2023-03-22T07:29:28;9.00;68.50
4312;DHT22;2169;49.086;9.284;2023-03-22T07:31:55;9.10;68.60
4312;DHT22;2169;49.086;9.284;2023-03-22T07:34:22;9.20;68.60
4312;DHT22;2169;49.086;9.284;2023-03-22T07:36:49;9.30;68.70
4312;DHT22;2169;49.086;9.284;2023-03-22T07:39:15;9.40;68.70
4312;DHT22;2169;49.086;9.284;2023-03-22T07:41:43;9.40;68.60
4312;DHT22;2169;49.086;9.284;2023-03-22T07:44:10;9.50;68.50
4312;DHT22;2169;49.086;9.284;2023-03-22T07:46:37;9.60;68.50
4312;DHT22;2169;49.086;9.284;2023-03-22T07:49:04;9.60;68.40
4312;DHT22;2169;49.086;9.284;2023-03-22T07:51:30;9.70;68.30
4312;DHT22;2169;49.086;9.284;2023-03-22T07:53:57;9.80;68.20
4312;DHT22;2169;49.086;9.284;2023-03-22T07:56:24;9.90;68.10
4312;DHT22;2169;49.086;9.284;2023-03-22T07:58:52;9.90;68.00
4312;DHT22;2169;49.086;9.284;2023-03-22T08:01:19;10.10;67.10
4312;DHT22;2169;49.086;9.284;2023-03-22T08:03:46;10.10;67.00
4312;DHT22;2169;49.086;9.284;2023-03-22T08:06:13;10.20;67.00
4312;DHT22;2169;49.086;9.284;2023-03-22T08:08:40;10.30;67.00
4312;DHT22;2169;49.086;9.284;2023-03-22T08:11:07;10.40;66.90
4312;DHT22;2169;49.086;9.284;2023-03-22T08:13:34;10.50;66.90
4312;DHT22;2169;49.086;9.284;2023-03-22T08:16:04;10.60;66.90
4312;DHT22;2169;49.086;9.284;2023-03-22T08:18:31;10.70;66.80
4312;DHT22;2169;49.086;9.284;2023-03-22T08:20:59;10.90;66.90
4312;DHT22;2169;49.086;9.284;2023-03-22T08:23:27;11.00;66.70
4312;DHT22;2169;49.086;9.284;2023-03-22T08:25:53;11.10;66.60
4312;DHT22;2169;49.086;9.284;2023-03-22T08:28:20;11.30;66.60
4312;DHT22;2169;49.086;9.284;2023-03-22T08:30:48;11.40;66.60
4312;DHT22;2169;49.086;9.284;2023-03-22T08:33:16;11.60;66.50
4312;DHT22;2169;49.086;9.284;2023-03-22T08:35:45;11.70;66.30
4312;DHT22;2169;49.086;9.284;2023-03-22T08:38:12;11.90;66.20
4312;DHT22;2169;49.086;9.284;2023-03-22T08:40:39;12.00;66.10
4312;DHT22;2169;49.086;9.284;2023-03-22T08:43:05;12.20;66.10
4312;DHT22;2169;49.086;9.284;2023-03-22T08:45:32;12.40;66.10
4312;DHT22;2169;49.086;9.284;2023-03-22T08:47:59;12.50;65.70
4312;DHT22;2169;49.086;9.284;2023-03-22T08:50:28;12.70;65.80
4312;DHT22;2169;49.086;9.284;2023-03-22T08:52:58;12.90;65.40
4312;DHT22;2169;49.086;9.284;2023-03-22T08:55:25;13.00;65.30
4312;DHT22;2169;49.086;9.284;2023-03-22T08:57:52;13.20;65.20
4312;DHT22;2169;49.086;9.284;2023-03-22T09:00:23;13.40;65.00
4312;DHT22;2169;49.086;9.284;2023-03-22T09:02:50;13.60;64.80
4312;DHT22;2169;49.086;9.284;2023-03-22T09:05:17;13.80;64.60
4312;DHT22;2169;49.086;9.284;2023-03-22T09:07:45;13.90;64.40
4312;DHT22;2169;49.086;9.284;2023-03-22T09:10:12;14.10;64.10
4312;DHT22;2169;49.086;9.284;2023-03-22T09:12:39;14.30;63.60
4312;DHT22;2169;49.086;9.284;2023-03-22T09:15:07;14.50;63.20
4312;DHT22;2169;49.086;9.284;2023-03-22T09:17:34;14.60;62.80
4312;DHT22;2169;49.086;9.284;2023-03-22T09:20:01;14.70;62.20
4312;DHT22;2169;49.086;9.284;2023-03-22T09:22:28;14.90;61.90
4312;DHT22;2169;49.086;9.284;2023-03-22T09:24:56;15.00;61.40
4312;DHT22;2169;49.086;9.284;2023-03-22T09:27:22;15.20;60.80
4312;DHT22;2169;49.086;9.284;2023-03-22T09:29:51;15.20;60.10
4312;DHT22;2169;49.086;9.284;2023-03-22T09:32:17;15.40;59.90
4312;DHT22;2169;49.086;9.284;2023-03-22T09:34:44;15.40;59.60
4312;DHT22;2169;49.086;9.284;2023-03-22T09:37:11;15.50;59.10
4312;DHT22;2169;49.086;9.284;2023-03-22T09:39:39;15.60;58.90
4312;DHT22;2169;49.086;9.284;2023-03-22T09:42:19;15.70;58.70
4312;DHT22;2169;49.086;9.284;2023-03-22T09:44:48;15.80;58.40
4312;DHT22;2169;49.086;9.284;2023-03-22T09:47:18;15.90;57.90
4312;DHT22;2169;49.086;9.284;2023-03-22T09:49:49;16.00;58.00
4312;DHT22;2169;49.086;9.284;2023-03-22T09:52:22;16.10;57.60
4312;DHT22;2169;49.086;9.284;2023-03-22T09:54:48;16.10;57.30
4312;DHT22;2169;49.086;9.284;2023-03-22T09:57:23;16.20;57.20
4312;DHT22;2169;49.086;9.284;2023-03-22T09:59:57;16.30;57.10
4312;DHT22;2169;49.086;9.284;2023-03-22T10:02:38;16.40;56.30
4312;DHT22;2169;49.086;9.284;2023-03-22T10:05:13;16.50;55.80
4312;DHT22;2169;49.086;9.284;2023-03-22T10:07:56;16.50;55.10
4312;DHT22;2169;49.086;9.284;2023-03-22T10:10:26;16.60;55.10
4312;DHT22;2169;49.086;9.284;2023-03-22T10:12:58;16.60;54.70
4312;DHT22;2169;49.086;9.284;2023-03-22T10:15:32;16.70;54.40
4312;DHT22;2169;49.086;9.284;2023-03-22T10:18:02;16.70;54.50
4312;DHT22;2169;49.086;9.284;2023-03-22T10:20:38;16.80;54.30
4312;DHT22;2169;49.086;9.284;2023-03-22T10:23:11;16.80;54.10
4312;DHT22;2169;49.086;9.284;2023-03-22T10:25:40;16.90;54.20
4312;DHT22;2169;49.086;9.284;2023-03-22T10:28:19;16.90;54.00
4312;DHT22;2169;49.086;9.284;2023-03-22T10:30:51;17.10;53.60
4312;DHT22;2169;49.086;9.284;2023-03-22T10:33:25;17.10;53.60
4312;DHT22;2169;49.086;9.284;2023-03-22T10:35:54;17.20;53.60
4312;DHT22;2169;49.086;9.284;2023-03-22T10:38:24;17.30;54.20
4312;DHT22;2169;49.086;9.284;2023-03-22T10:40:53;17.40;53.10
4312;DHT22;2169;49.086;9.284;2023-03-22T10:43:27;17.40;52.80
4312;DHT22;2169;49.086;9.284;2023-03-22T10:45:56;17.50;52.70
4312;DHT22;2169;49.086;9.284;2023-03-22T10:48:26;17.50;52.50
4312;DHT22;2169;49.086;9.284;2023-03-22T10:50:54;17.50;52.00
4312;DHT22;2169;49.086;9.284;2023-03-22T10:53:27;17.60;51.80
4312;DHT22;2169;49.086;9.284;2023-03-22T10:55:56;17.60;51.70
4312;DHT22;2169;49.086;9.284;2023-03-22T10:58:29;17.60;51.90
4312;DHT22;2169;49.086;9.284;2023-03-22T11:00:57;17.70;52.10
4312;DHT22;2169;49.086;9.284;2023-03-22T11:03:28;17.80;52.30
4312;DHT22;2169;49.086;9.284;2023-03-22T11:06:00;17.90;51.90
4312;DHT22;2169;49.086;9.284;2023-03-22T11:08:27;17.90;51.60
4312;DHT22;2169;49.086;9.284;2023-03-22T11:10:54;17.90;51.50
4312;DHT22;2169;49.086;9.284;2023-03-22T11:13:26;18.00;51.60
4312;DHT22;2169;49.086;9.284;2023-03-22T11:15:57;18.00;51.50
4312;DHT22;2169;49.086;9.284;2023-03-22T11:18:24;18.10;51.40
4312;DHT22;2169;49.086;9.284;2023-03-22T11:20:57;18.10;51.30
4312;DHT22;2169;49.086;9.284;2023-03-22T11:23:25;18.20;51.40
4312;DHT22;2169;49.086;9.284;2023-03-22T11:25:55;18.30;51.40
4312;DHT22;2169;49.086;9.284;2023-03-22T11:28:27;18.30;51.20
4312;DHT22;2169;49.086;9.284;2023-03-22T11:31:02;18.40;51.10
4312;DHT22;2169;49.086;9.284;2023-03-22T11:33:30;18.40;51.10
4312;DHT22;2169;49.086;9.284;2023-03-22T11:35:59;18.50;51.20
4312;DHT22;2169;49.086;9.284;2023-03-22T11:38:28;18.60;51.20
4312;DHT22;2169;49.086;9.284;2023-03-22T11:40:58;18.70;51.10
4312;DHT22;2169;49.086;9.284;2023-03-22T11:43:32;18.70;50.40
4312;DHT22;2169;49.086;9.284;2023-03-22T11:46:00;18.80;50.20
4312;DHT22;2169;49.086;9.284;2023-03-22T11:48:28;18.80;50.20
4312;DHT22;2169;49.086;9.284;2023-03-22T11:51:03;18.80;50.00
4312;DHT22;2169;49.086;9.284;2023-03-22T11:53:32;18.90;49.80
4312;DHT22;2169;49.086;9.284;2023-03-22T11:56:02;18.90;49.70
4312;DHT22;2169;49.086;9.284;2023-03-22T11:58:47;19.00;49.80
4312;DHT22;2169;49.086;9.284;2023-03-22T12:01:20;19.00;49.40
4312;DHT22;2169;49.086;9.284;2023-03-22T12:03:55;19.10;49.50
4312;DHT22;2169;49.086;9.284;2023-03-22T12:06:25;19.10;49.10
4312;DHT22;2169;49.086;9.284;2023-03-22T12:08:57;19.10;48.90
4312;DHT22;2169;49.086;9.284;2023-03-22T12:11:27;19.20;48.60
4312;DHT22;2169;49.086;9.284;2023-03-22T12:13:59;19.20;48.40
4312;DHT22;2169;49.086;9.284;2023-03-22T12:16:29;19.20;48.50
4312;DHT22;2169;49.086;9.284;2023-03-22T12:19:04;19.30;48.60
4312;DHT22;2169;49.086;9.284;2023-03-22T12:21:34;19.40;48.50
4312;DHT22;2169;49.086;9.284;2023-03-22T12:24:03;19.50;48.40
4312;DHT22;2169;49.086;9.284;2023-03-22T12:26:37;19.60;48.30
4312;DHT22;2169;49.086;9.284;2023-03-22T12:29:10;19.60;48.10
4312;DHT22;2169;49.086;9.284;2023-03-22T12:31:43;19.70;47.50
4312;DHT22;2169;49.086;9.284;2023-03-22T12:34:17;19.70;47.30
4312;DHT22;2169;49.086;9.284;2023-03-22T12:36:46;19.70;47.30
4312;DHT22;2169;49.086;9.284;2023-03-22T12:39:22;19.70;47.30
4312;DHT22;2169;49.086;9.284;2023-03-22T12:41:54;19.80;47.30
4312;DHT22;2169;49.086;9.284;2023-03-22T12:44:26;19.80;47.40
4312;DHT22;2169;49.086;9.284;2023-03-22T12:46:56;19.90;47.30
4312;DHT22;2169;49.086;9.284;2023-03-22T12:49:27;19.90;46.30
4312;DHT22;2169;49.086;9.284;2023-03-22T12:52:11;19.90;45.60
4312;DHT22;2169;49.086;9.284;2023-03-22T12:54:39;19.90;44.40
4312;DHT22;2169;49.086;9.284;2023-03-22T12:57:07;19.80;44.30
4312;DHT22;2169;49.086;9.284;2023-03-22T12:59:36;19.80;44.00
4312;DHT22;2169;49.086;9.284;2023-03-22T13:02:08;19.90;43.90
4312;DHT22;2169;49.086;9.284;2023-03-22T13:04:53;19.90;43.30
4312;DHT22;2169;49.086;9.284;2023-03-22T13:07:40;19.90;42.80
4312;DHT22;2169;49.086;9.284;2023-03-22T13:10:39;20.00;42.60
4312;DHT22;2169;49.086;9.284;2023-03-22T13:13:14;20.00;42.50
4312;DHT22;2169;49.086;9.284;2023-03-22T13:15:58;20.10;42.80
4312;DHT22;2169;49.086;9.284;2023-03-22T13:18:36;20.10;42.70
4312;DHT22;2169;49.086;9.284;2023-03-22T13:21:12;20.10;42.20
4312;DHT22;2169;49.086;9.284;2023-03-22T13:23:58;20.10;42.10
4312;DHT22;2169;49.086;9.284;2023-03-22T13:26:32;20.10;41.90
4312;DHT22;2169;49.086;9.284;2023-03-22T13:29:01;20.00;41.70
4312;DHT22;2169;49.086;9.284;2023-03-22T13:31:39;20.00;41.80
4312;DHT22;2169;49.086;9.284;2023-03-22T13:34:17;20.10;42.00
4312;DHT22;2169;49.086;9.284;2023-03-22T13:36:52;20.10;41.90
4312;DHT22;2169;49.086;9.284;2023-03-22T13:39:22;20.20;41.80
4312;DHT22;2169;49.086;9.284;2023-03-22T13:42:01;20.20;41.70
4312;DHT22;2169;49.086;9.284;2023-03-22T13:44:30;20.30;41.30
4312;DHT22;2169;49.086;9.284;2023-03-22T13:47:03;20.40;41.40
4312;DHT22;2169;49.086;9.284;2023-03-22T13:49:45;20.40;40.70
4312;DHT22;2169;49.086;9.284;2023-03-22T13:52:31;20.40;40.40
4312;DHT22;2169;49.086;9.284;2023-03-22T13:54:59;20.50;39.90
4312;DHT22;2169;49.086;9.284;2023-03-22T13:57:56;20.50;39.80
4312;DHT22;2169;49.086;9.284;2023-03-22T14:00:41;20.50;39.90
4312;DHT22;2169;49.086;9.284;2023-03-22T14:03:22;20.60;40.00
4312;DHT22;2169;49.086;9.284;2023-03-22T14:06:02;20.60;40.00
4312;DHT22;2169;49.086;9.284;2023-03-22T14:08:31;20.60;40.20
4312;DHT22;2169;49.086;9.284;2023-03-22T14:11:15;20.60;40.10
4312;DHT22;2169;49.086;9.284;2023-03-22T14:13:47;20.60;39.80
4312;DHT22;2169;49.086;9.284;2023-03-22T14:16:18;20.60;39.70
4312;DHT22;2169;49.086;9.284;2023-03-22T14:18:48;20.60;39.80
4312;DHT22;2169;49.086;9.284;2023-03-22T14:21:18;20.60;40.40
4312;DHT22;2169;49.086;9.284;2023-03-22T14:23:48;20.70;39.90
4312;DHT22;2169;49.086;9.284;2023-03-22T14:26:21;20.70;39.80
4312;DHT22;2169;49.086;9.284;2023-03-22T14:28:49;20.80;39.70
4312;DHT22;2169;49.086;9.284;2023-03-22T14:31:21;20.80;39.70
4312;DHT22;2169;49.086;9.284;2023-03-22T14:33:51;20.80;39.70
4312;DHT22;2169;49.086;9.284;2023-03-22T14:36:20;20.80;39.70
4312;DHT22;2169;49.086;9.284;2023-03-22T14:38:49;20.80;39.50
4312;DHT22;2169;49.086;9.284;2023-03-22T14:41:19;20.90;39.30
4312;DHT22;2169;49.086;9.284;2023-03-22T14:43:47;20.80;39.20
4312;DHT22;2169;49.086;9.284;2023-03-22T14:46:17;20.80;39.30
4312;DHT22;2169;49.086;9.284;2023-03-22T14:48:49;20.90;39.50
4312;DHT22;2169;49.086;9.284;2023-03-22T14:51:20;20.90;39.10
4312;DHT22;2169;49.086;9.284;2023-03-22T14:53:48;20.80;38.80
4312;DHT22;2169;49.086;9.284;2023-03-22T14:56:18;20.80;38.80
4312;DHT22;2169;49.086;9.284;2023-03-22T14:58:48;20.80;38.60
4312;DHT22;2169;49.086;9.284;2023-03-22T15:01:20;20.70;38.40
4312;DHT22;2169;49.086;9.284;2023-03-22T15:03:50;20.70;38.40
4312;DHT22;2169;49.086;9.284;2023-03-22T15:06:19;20.70;38.70
4312;DHT22;2169;49.086;9.284;2023-03-22T15:08:46;20.70;38.80
4312;DHT22;2169;49.086;9.284;2023-03-22T15:11:13;20.70;38.90
4312;DHT22;2169;49.086;9.284;2023-03-22T15:13:43;20.70;38.70
4312;DHT22;2169;49.086;9.284;2023-03-22T15:16:17;20.70;38.80
4312;DHT22;2169;49.086;9.284;2023-03-22T15:18:45;20.70;38.60
4312;DHT22;2169;49.086;9.284;2023-03-22T15:21:13;20.70;38.60
4312;DHT22;2169;49.086;9.284;2023-03-22T15:23:48;20.80;38.80
4312;DHT22;2169;49.086;9.284;2023-03-22T15:26:17;20.80;38.70
4312;DHT22;2169;49.086;9.284;2023-03-22T15:28:52;20.70;38.90
4312;DHT22;2169;49.086;9.284;2023-03-22T15:31:21;20.70;38.80
4312;DHT22;2169;49.086;9.284;2023-03-22T15:33:51;20.70;38.80
4312;DHT22;2169;49.086;9.284;2023-03-22T15:36:19;20.60;38.70
4312;DHT22;2169;49.086;9.284;2023-03-22T15:38:48;20.60;38.80
4312;DHT22;2169;49.086;9.284;2023-03-22T15:41:20;20.60;38.90
4312;DHT22;2169;49.086;9.284;2023-03-22T15:43:57;20.60;39.20
4312;DHT22;2169;49.086;9.284;2023-03-22T15:46:24;20.60;39.40
4312;DHT22;2169;49.086;9.284;2023-03-22T15:48:57;20.60;39.60
4312;DHT22;2169;49.086;9.284;2023-03-22T15:51:27;20.60;39.50
4312;DHT22;2169;49.086;9.284;2023-03-22T15:54:03;20.60;39.70
4312;DHT22;2169;49.086;9.284;2023-03-22T15:56:32;20.60;39.90
4312;DHT22;2169;49.086;9.284;2023-03-22T15:59:01;20.50;39.90
4312;DHT22;2169;49.086;9.284;2023-03-22T16:01:34;20.50;40.00
4312;DHT22;2169;49.086;9.284;2023-03-22T16:04:15;20.40;39.80
4312;DHT22;2169;49.086;9.284;2023-03-22T16:06:43;20.40;40.00
4312;DHT22;2169;49.086;9.284;2023-03-22T16:09:11;20.30;39.70
4312;DHT22;2169;49.086;9.284;2023-03-22T16:11:38;20.30;39.60
4312;DHT22;2169;49.086;9.284;2023-03-22T16:14:06;20.30;39.80
4312;DHT22;2169;49.086;9.284;2023-03-22T16:16:36;20.20;39.90
4312;DHT22;2169;49.086;9.284;2023-03-22T16:19:03;20.20;40.00
4312;DHT22;2169;49.086;9.284;2023-03-22T16:21:30;20.20;40.20
4312;DHT22;2169;49.086;9.284;2023-03-22T16:23:58;20.20;40.40
4312;DHT22;2169;49.086;9.284;2023-03-22T16:26:27;20.20;40.50
4312;DHT22;2169;49.086;9.284;2023-03-22T16:28:55;20.10;40.60